Etusivu
METAR-TAF:

METAR-TAF

Lentoasemat :

Dillon Airport

Dillon, Montana, Yhdysvallat

Leveyspiiri: 45-15-27N, Pituuspiiri: 112-33-16W, korkeus merenpinnasta: 1597 m

Tämänhetkinen sää

Tämä raportti tehtiin 20 minuuttia sitten, kello 02.53 UTC
Tuuli 4 kn etelästä
Lämpötila 5°C
Kosteus 60%
Ilmanpaine 1012 hPa
Näkyvyys: 16.1 km
Muutamia pilviä 12000 ft:n korkeudessa

METAR: KDLN 190253Z AUTO 17004KT 10SM FEW120 05/M02 A2987 RMK AO2 SLP122 T00501022 58010

Aika: 20:13 (03:13 UTC)


TAF: puuttuu

Säähavainnot ja -ennusteet yli 4000 lentoasemalta (METAR- ja TAF-raportit).

Käytössä olevat sääasemat on merkitty karttaan keltaisilla ja punaisilla pisteillä.

Aseta hiiri pisteen päälle nähdäksesi sääaseman nimen.

Klikkaa sitten nähdäksesi säähavainnot ja -ennusteet.

Kartan vaihtaminen: klikkaa mustalla rastilla varustettuja vihreitä pisteitä, niin voit zoomata sisään; viivalla varustettua vihreää pistettä, niin voit zoomata ulos tai vihreitä nuolia, niin pääset viereisille kartoille.


METAR-TAF: